Ana Sayfa
METAR-TAF:

METAR-TAF

Havaalanları :

Palembang, Endonezya

Enlem: 02-54S, Boylam: 104-42E, yükseklik: 10 m

Güncel hava durumu gözlemi

Rapor saat 05:00 UTC de 21 saat ve 34 dakika önce yapıldı.
Rüzgar doğu/güneydoğudan 10 kt
Sıcaklık 31°C
Nem 55%
Basınç 1010 hPa
Görüş mesafesi 10 km veya daha fazla
1000 ft yükseklikte parçalı bulutlu

METAR: WIPP 170500Z 11010KT 9999 SCT010 31/21 Q1010 NOSIG

Saat: 09:34 (02:34 UTC)

Tahmin

Rapor saat 23:00 UTC de 3 saat ve 34 dakika önce yapıldı.
Ayın 18'si saat 00 UTC'den ayın 18'si saat 24 UTC'ye kadar geçerli Tahmin
Rüzgar güney/güneydoğudan 10 kt
Görüş mesafesi 10 km veya daha fazla
1000 ft yükseklikte parçalı bulutlu
Geçici
ayın 18'si saat 00 UTC'den ayın 18'si saat 02 UTC'ye kadar
Görüş mesafesi: 5000 m
Toz Pusu
Geçici
ayın 18'si saat 22 UTC'den ayın 18'si saat 24 UTC'ye kadar
Görüş mesafesi: 3000 m
Pus

TAF: WIPP 172300Z 1800/1824 15010KT 9999 SCT010 TEMPO 1800/1802 5000 HZ TEMPO 1822/1824 3000 BR

4.000'den fazla havaalanı için hava durumu gözlemleri ve tahminleri (METAR ve TAF raporları).

Kullanılabilir istasyonlar harita üzerinde sarı ve kırmızı noktalarla gösterilir.

İstasyonun adını görmek için fareyi noktanın üzerinde gezdirin.

Sonrasında hava gözlem ve tahminlerini görmek için tıklayın.

Haritayı değiştirmek için: yaklaştırmak için siyah artı işaretli yeşil düğmeye ve uzaklaştırmak için de eksi işaretli düğmeye hızla tıklayın; bitişik haritalar için yeşil okları kullanın.


METAR-TAF: